Zlatibor, Serbia
Current Conditions -  °F | °C
As of 6:30 PM on Tuesday 21 Oct 2014 (Local Time) from LYUZ Reporting Station
Scattered Clouds Scattered Clouds  
Wind Chill: 57°   Ceiling: Unl
Heat Index: 57°   Visibility: 6mi
Dew Point: 52°   Wind: 1mph
Humidity: 82%   Direction: NA
Pressure: 29.91"   Gusts: NA
Location:  43.72°N, 19.7°E
Report Text: LYUZ 211630Z VRB01KT 9999 SCT020 14/11 Q1013
Loading
Personal Weather Stations






























Interactive Weather Map
Tropical Storm Tracking
New forecast layout! Learn more

10-Day Weather Forecast

Advertisements
Track Severe Weather on mobile